Flight Track Log - Related Links

Times and Time Zones

All times are in EDT time to prevent confusion due to time zone crossing. See the CTL15 flight status page for this flight to view local times or setup timezone preferences in your user account.

Time Position Orientation Groundspeed Altitude Reporting Facility
EDT Latitude Longitude Course Direction KTS MPH feet Rate Location/Type
Wed 08:46:34 PM 39.6422 -84.1722 44° Northeast 119 137 3,200  Level Indianapolis Center
Wed 08:48:05 PM 39.6794 -84.1258 44° Northeast 120 138 4,700 945 Climbing Indianapolis Center
Wed 08:49:00 PM 39.7006 -84.0958 48° Northeast 120 138 5,500 826 Climbing Indianapolis Center
Wed 08:49:54 PM 39.7258 -84.0694 39° Northeast 127 146 6,200 575 Climbing Indianapolis Center
Wed 08:50:13 PM 39.7294 -84.0614 60° Northeast 122 140 6,200 537 Level Indianapolis Center
Wed 08:51:01 PM 39.7539 -84.0297 45° Northeast 131 151 6,800 293 Climbing Indianapolis Center
Wed 08:52:16 PM 39.7842 -83.9922 44° Northeast 133 153 6,800 98 Level Indianapolis Center
Wed 08:53:03 PM 39.8144 -83.9533 45° Northeast 156 180 7,000 290 Climbing Indianapolis Center
Wed 08:53:18 PM 39.8164 -83.9514 38° Northeast 146 168 7,100 98 Climbing Indianapolis Center
Wed 08:54:04 PM 39.8444 -83.9136 46° Northeast 158 182 7,100  Level Indianapolis Center
Wed 08:54:19 PM 39.8536 -83.9042 38° Northeast 155 178 7,100  Level Indianapolis Center
Wed 08:54:58 PM 39.8744 -83.8794 42° Northeast 153 176 7,100  Level Indianapolis Center
Wed 08:55:20 PM 39.8858 -83.8664 41° Northeast 155 178 7,100  Level Indianapolis Center
Wed 08:55:59 PM 39.9044 -83.8425 45° Northeast 156 180 7,100  Level Indianapolis Center
Wed 08:56:21 PM 39.9175 -83.8278 41° Northeast 154 177 7,100  Level Indianapolis Center
Wed 08:57:06 PM 39.9414 -83.7956 46° Northeast 157 181 7,100  Level Indianapolis Center
Wed 08:57:23 PM 39.9494 -83.7875 37° Northeast 156 180 7,100  Level Indianapolis Center
Wed 08:58:07 PM 39.9739 -83.7561 45° Northeast 162 186 7,100  Level Indianapolis Center
Wed 08:58:24 PM 39.9831 -83.7464 39° Northeast 160 184 7,100  Level Indianapolis Center
Wed 08:59:08 PM 40.0081 -83.7194 40° Northeast 159 183 7,100  Level Indianapolis Center
Wed 08:59:26 PM 40.0164 -83.7075 48° Northeast 160 184 7,100  Level Indianapolis Center
Wed 09:00:03 PM 40.0358 -83.6822 45° Northeast 159 183 7,100  Level Indianapolis Center
Wed 09:00:27 PM 40.0494 -83.6678 39° Northeast 159 183 7,100  Level Indianapolis Center
Wed 09:01:03 PM 40.0681 -83.6425 46° Northeast 159 183 7,100 -98 Level Indianapolis Center
Wed 09:01:28 PM 40.0814 -83.6258 44° Northeast 160 184 7,000 -90 Descending Indianapolis Center
Wed 09:02:10 PM 40.1050 -83.5953 45° Northeast 161 185 7,000  Level Indianapolis Center
Wed 09:02:30 PM 40.1133 -83.5833 48° Northeast 161 185 7,000  Level Indianapolis Center
Wed 09:03:11 PM 40.1356 -83.5528 46° Northeast 161 185 7,000  Level Indianapolis Center
Wed 09:03:31 PM 40.1442 -83.5406 47° Northeast 160 184 7,000  Level Indianapolis Center
Wed 09:04:11 PM 40.1678 -83.5103 44° Northeast 160 184 7,000  Level Indianapolis Center
Wed 09:04:32 PM 40.1761 -83.4989 46° Northeast 160 184 7,000 98 Level Indianapolis Center
Wed 09:05:12 PM 40.2000 -83.4706 42° Northeast 163 188 7,100  Climbing Indianapolis Center
Wed 09:05:33 PM 40.2097 -83.4603 39° Northeast 160 184 7,000  Descending Indianapolis Center
Wed 09:06:13 PM 40.2342 -83.4339 39° Northeast 158 182 7,100 97 Climbing Indianapolis Center
Wed 09:06:35 PM 40.2433 -83.4222 44° Northeast 158 182 7,100 -98 Level Indianapolis Center
Wed 09:07:14 PM 40.2619 -83.3933 50° Northeast 157 181 7,000 -98 Descending Indianapolis Center
Wed 09:07:36 PM 40.2736 -83.3800 41° Northeast 156 180 7,000  Level Indianapolis Center
Wed 09:08:37 PM 40.3058 -83.3408 43° Northeast 157 181 7,000  Level Indianapolis Center
Wed 09:09:38 PM 40.3378 -83.2992 45° Northeast 159 183 7,000  Level Indianapolis Center
Wed 09:10:39 PM 40.3681 -83.2564 47° Northeast 159 183 7,000  Level Indianapolis Center
Wed 09:11:41 PM 40.3967 -83.2144 48° Northeast 154 177 7,000  Level Indianapolis Center
Wed 09:12:42 PM 40.4267 -83.1725 47° Northeast 156 180 7,000  Level Indianapolis Center
Wed 09:13:43 PM 40.4606 -83.1336 41° Northeast 158 182 7,000  Level Indianapolis Center
Wed 09:14:44 PM 40.4928 -83.0933 44° Northeast 158 182 7,000  Level Indianapolis Center
Wed 09:15:46 PM 40.5256 -83.0511 44° Northeast 157 181 7,000 -49 Level Indianapolis Center
Wed 09:16:47 PM 40.5556 -83.0075 48° Northeast 159 183 6,900  Descending Indianapolis Center
Wed 09:17:48 PM 40.5856 -82.9642 48° Northeast 160 184 7,000 -49 Climbing Indianapolis Center
Wed 09:18:49 PM 40.6169 -82.9219 46° Northeast 160 184 6,800  Descending Indianapolis Center
Wed 09:19:51 PM 40.6517 -82.8711 48° Northeast 158 182 7,000 98 Climbing Indianapolis Center
Wed 09:20:52 PM 40.6825 -82.8294 46° Northeast 157 181 7,000 71 Level Indianapolis Center
Wed 09:21:16 PM 40.6914 -82.8206 37° Northeast 156 180 7,100 71 Climbing Cleveland Center
Wed 09:22:16 PM 40.7214 -82.7747 49° Northeast 157 181 7,100  Level Cleveland Center
Wed 09:23:17 PM 40.7556 -82.7375 40° Northeast 159 183 7,100  Level Cleveland Center
Wed 09:24:23 PM 40.7897 -82.6867 48° Northeast 159 183 7,100  Level Cleveland Center
Wed 09:25:24 PM 40.8219 -82.6464 43° Northeast 160 184 7,100  Level Cleveland Center
Wed 09:26:19 PM 40.8497 -82.6061 48° Northeast 158 182 7,100  Level Cleveland Center
Wed 09:27:19 PM 40.8797 -82.5603 49° Northeast 162 186 7,100  Level Cleveland Center
Wed 09:28:20 PM 40.9117 -82.5203 43° Northeast 160 184 7,100  Level Cleveland Center
Wed 09:29:21 PM 40.9436 -82.4772 46° Northeast 160 184 7,100  Level Cleveland Center
Wed 09:30:21 PM 40.9756 -82.4367 44° Northeast 159 183 7,100  Level Cleveland Center
Wed 09:31:22 PM 41.0056 -82.3936 47° Northeast 161 185 7,100 50 Level Cleveland Center
Wed 09:32:22 PM 41.0372 -82.3558 42° Northeast 159 183 7,200  Climbing Cleveland Center
Wed 09:33:23 PM 41.0772 -82.3267 29° Northeast 169 194 7,100 -45 Descending Cleveland Center
Wed 09:34:36 PM 41.1342 -82.2978 21° North 167 192 7,100 -316 Level Cleveland Center
Wed 09:35:36 PM 41.1803 -82.2769 19° North 179 206 6,400 -843 Descending Cleveland Center
Wed 09:36:37 PM 41.2286 -82.2506 22° Northeast 195 224 5,400 -885 Descending Cleveland Center
Wed 09:37:38 PM 41.2792 -82.2217 23° Northeast 195 224 4,600 -694 Descending Cleveland Center
Wed 09:38:38 PM 41.3253 -82.1950 23° Northeast 186 214 4,000 -520 Descending Cleveland Center
Wed 09:39:45 PM 41.3778 -82.1661 22° Northeast 173 199 3,500 -422 Descending Cleveland Center
Wed 09:40:46 PM 41.4242 -82.1339 28° Northeast 181 208 3,100 -198 Descending Cleveland Center
Wed 09:41:46 PM 41.4661 -82.1044 28° Northeast 163 188 3,100  Level Cleveland Center
Wed 09:42:47 PM 41.4814 -82.0550 68° East 150 173 3,100 -50 Level Cleveland Center
Wed 09:43:47 PM 41.4883 -81.9997 80° East 151 174 3,000 -298 Descending Cleveland Center
Wed 09:44:48 PM 41.4975 -81.9417 78° East 161 185 2,500 -590 Descending Cleveland Center
Wed 09:45:49 PM 41.5025 -81.8778 84° East 169 194 1,800 -574 Descending Cleveland Center
Wed 09:46:43 PM 41.5031 -81.8225 89° East 161 185 1,400 -313 Descending Cleveland Center
Wed 09:47:44 PM 41.5056 -81.7644 87° East 152 175 1,200 -248 Descending Cleveland Center
Wed 09:48:44 PM 41.5083 -81.7172 85° East 124 143 900 -300 Descending Cleveland Center

Login

Don't have an account? Register now (free) for customized features, flight alerts, and more!